sensor_id;sensor_type;location;lat;lon;timestamp;P1;durP1;ratioP1;P2;durP2;ratioP2
20749;SDS011;10535;50.664;4.564;2023-02-28T00:00:28;7.53;;;4.87;;
20749;SDS011;10535;50.664;4.564;2023-02-28T00:02:54;4.87;;;3.37;;
20749;SDS011;10535;50.664;4.564;2023-02-28T00:05:21;8.17;;;5.07;;
20749;SDS011;10535;50.664;4.564;2023-02-28T00:07:48;6.13;;;4.27;;
20749;SDS011;10535;50.664;4.564;2023-02-28T00:12:52;6.23;;;3.83;;
20749;SDS011;10535;50.664;4.564;2023-02-28T00:15:18;6.23;;;4.37;;
20749;SDS011;10535;50.664;4.564;2023-02-28T00:17:45;8.93;;;5.00;;
20749;SDS011;10535;50.664;4.564;2023-02-28T00:20:11;6.70;;;4.60;;
20749;SDS011;10535;50.664;4.564;2023-02-28T00:22:39;5.57;;;4.13;;
20749;SDS011;10535;50.664;4.564;2023-02-28T00:25:10;7.93;;;4.40;;
20749;SDS011;10535;50.664;4.564;2023-02-28T00:27:37;9.63;;;4.43;;
20749;SDS011;10535;50.664;4.564;2023-02-28T00:30:04;5.77;;;3.27;;
20749;SDS011;10535;50.664;4.564;2023-02-28T00:32:31;6.13;;;4.17;;
20749;SDS011;10535;50.664;4.564;2023-02-28T00:34:57;8.00;;;6.00;;
20749;SDS011;10535;50.664;4.564;2023-02-28T00:37:23;8.03;;;4.33;;
20749;SDS011;10535;50.664;4.564;2023-02-28T00:39:49;8.63;;;5.50;;
20749;SDS011;10535;50.664;4.564;2023-02-28T00:42:14;12.77;;;5.23;;
20749;SDS011;10535;50.664;4.564;2023-02-28T00:44:40;7.63;;;3.97;;
20749;SDS011;10535;50.664;4.564;2023-02-28T00:47:05;5.00;;;3.57;;
20749;SDS011;10535;50.664;4.564;2023-02-28T00:49:31;7.57;;;5.00;;
20749;SDS011;10535;50.664;4.564;2023-02-28T00:51:57;7.73;;;4.13;;
20749;SDS011;10535;50.664;4.564;2023-02-28T00:54:22;6.87;;;3.67;;
20749;SDS011;10535;50.664;4.564;2023-02-28T00:56:49;6.10;;;4.43;;
20749;SDS011;10535;50.664;4.564;2023-02-28T00:59:15;7.70;;;4.40;;
20749;SDS011;10535;50.664;4.564;2023-02-28T01:01:42;7.60;;;3.70;;
20749;SDS011;10535;50.664;4.564;2023-02-28T01:04:08;6.77;;;4.53;;
20749;SDS011;10535;50.664;4.564;2023-02-28T01:06:34;15.67;;;4.90;;
20749;SDS011;10535;50.664;4.564;2023-02-28T01:08:59;5.40;;;4.07;;
20749;SDS011;10535;50.664;4.564;2023-02-28T01:11:25;8.40;;;4.70;;
20749;SDS011;10535;50.664;4.564;2023-02-28T01:13:51;8.07;;;4.67;;
20749;SDS011;10535;50.664;4.564;2023-02-28T01:16:16;7.03;;;4.50;;
20749;SDS011;10535;50.664;4.564;2023-02-28T01:18:42;5.50;;;3.80;;
20749;SDS011;10535;50.664;4.564;2023-02-28T01:21:12;6.33;;;4.63;;
20749;SDS011;10535;50.664;4.564;2023-02-28T01:23:40;3.93;;;3.00;;
20749;SDS011;10535;50.664;4.564;2023-02-28T01:26:10;5.90;;;3.97;;
20749;SDS011;10535;50.664;4.564;2023-02-28T01:28:44;8.60;;;3.80;;
20749;SDS011;10535;50.664;4.564;2023-02-28T01:31:10;5.27;;;3.70;;
20749;SDS011;10535;50.664;4.564;2023-02-28T01:33:36;6.27;;;3.47;;
20749;SDS011;10535;50.664;4.564;2023-02-28T01:36:06;6.63;;;3.37;;
20749;SDS011;10535;50.664;4.564;2023-02-28T01:38:39;5.53;;;3.97;;
20749;SDS011;10535;50.664;4.564;2023-02-28T01:41:06;6.07;;;3.80;;
20749;SDS011;10535;50.664;4.564;2023-02-28T01:46:18;5.90;;;3.60;;
20749;SDS011;10535;50.664;4.564;2023-02-28T01:48:48;7.83;;;4.47;;
20749;SDS011;10535;50.664;4.564;2023-02-28T01:51:20;6.37;;;3.60;;
20749;SDS011;10535;50.664;4.564;2023-02-28T01:53:52;6.57;;;3.80;;
20749;SDS011;10535;50.664;4.564;2023-02-28T01:56:20;6.20;;;3.90;;
20749;SDS011;10535;50.664;4.564;2023-02-28T01:58:51;7.17;;;3.80;;
20749;SDS011;10535;50.664;4.564;2023-02-28T02:01:19;4.60;;;3.67;;
20749;SDS011;10535;50.664;4.564;2023-02-28T02:03:59;7.63;;;3.23;;
20749;SDS011;10535;50.664;4.564;2023-02-28T02:06:33;8.73;;;4.93;;
20749;SDS011;10535;50.664;4.564;2023-02-28T02:09:04;3.93;;;3.03;;
20749;SDS011;10535;50.664;4.564;2023-02-28T02:11:31;5.10;;;4.13;;
20749;SDS011;10535;50.664;4.564;2023-02-28T02:14:08;7.00;;;4.43;;
20749;SDS011;10535;50.664;4.564;2023-02-28T02:17:05;5.70;;;3.97;;
20749;SDS011;10535;50.664;4.564;2023-02-28T02:23:16;7.43;;;3.37;;
20749;SDS011;10535;50.664;4.564;2023-02-28T02:25:54;9.43;;;3.13;;
20749;SDS011;10535;50.664;4.564;2023-02-28T02:28:35;5.47;;;3.63;;
20749;SDS011;10535;50.664;4.564;2023-02-28T02:36:42;3.87;;;3.43;;
20749;SDS011;10535;50.664;4.564;2023-02-28T02:39:24;5.47;;;3.37;;
20749;SDS011;10535;50.664;4.564;2023-02-28T02:42:01;2.80;;;2.60;;
20749;SDS011;10535;50.664;4.564;2023-02-28T02:44:39;4.63;;;2.33;;
20749;SDS011;10535;50.664;4.564;2023-02-28T02:47:12;6.40;;;3.83;;
20749;SDS011;10535;50.664;4.564;2023-02-28T02:49:42;6.07;;;4.13;;
20749;SDS011;10535;50.664;4.564;2023-02-28T02:52:16;4.20;;;3.57;;
20749;SDS011;10535;50.664;4.564;2023-02-28T02:54:46;11.17;;;3.80;;
20749;SDS011;10535;50.664;4.564;2023-02-28T02:57:22;5.40;;;2.73;;
20749;SDS011;10535;50.664;4.564;2023-02-28T02:59:53;4.73;;;3.20;;
20749;SDS011;10535;50.664;4.564;2023-02-28T03:02:21;5.93;;;3.83;;
20749;SDS011;10535;50.664;4.564;2023-02-28T03:04:50;4.67;;;2.93;;
20749;SDS011;10535;50.664;4.564;2023-02-28T03:07:18;6.47;;;3.50;;
20749;SDS011;10535;50.664;4.564;2023-02-28T03:09:54;2.83;;;2.27;;
20749;SDS011;10535;50.664;4.564;2023-02-28T03:12:21;8.23;;;3.47;;
20749;SDS011;10535;50.664;4.564;2023-02-28T03:14:59;8.53;;;3.80;;
20749;SDS011;10535;50.664;4.564;2023-02-28T03:23:15;5.30;;;3.57;;
20749;SDS011;10535;50.664;4.564;2023-02-28T03:34:03;4.40;;;2.93;;
20749;SDS011;10535;50.664;4.564;2023-02-28T03:36:39;9.00;;;3.13;;
20749;SDS011;10535;50.664;4.564;2023-02-28T03:39:20;9.20;;;4.17;;
20749;SDS011;10535;50.664;4.564;2023-02-28T03:42:09;5.33;;;3.37;;
20749;SDS011;10535;50.664;4.564;2023-02-28T03:44:41;6.17;;;3.33;;
20749;SDS011;10535;50.664;4.564;2023-02-28T03:47:16;4.43;;;3.20;;
20749;SDS011;10535;50.664;4.564;2023-02-28T03:50:07;3.33;;;2.90;;
20749;SDS011;10535;50.664;4.564;2023-02-28T03:52:51;3.70;;;2.90;;
20749;SDS011;10535;50.664;4.564;2023-02-28T03:55:42;3.93;;;2.97;;
20749;SDS011;10535;50.664;4.564;2023-02-28T04:01:03;9.40;;;4.00;;
20749;SDS011;10535;50.664;4.564;2023-02-28T04:03:36;6.30;;;4.30;;
20749;SDS011;10535;50.664;4.564;2023-02-28T04:06:03;5.80;;;3.30;;
20749;SDS011;10535;50.664;4.564;2023-02-28T04:08:30;6.57;;;3.50;;
20749;SDS011;10535;50.664;4.564;2023-02-28T04:10:57;6.47;;;3.43;;
20749;SDS011;10535;50.664;4.564;2023-02-28T04:13:31;7.03;;;3.97;;
20749;SDS011;10535;50.664;4.564;2023-02-28T04:15:57;5.20;;;3.30;;
20749;SDS011;10535;50.664;4.564;2023-02-28T04:18:22;5.53;;;3.93;;
20749;SDS011;10535;50.664;4.564;2023-02-28T04:20:48;7.57;;;3.50;;
20749;SDS011;10535;50.664;4.564;2023-02-28T04:23:13;5.87;;;3.43;;
20749;SDS011;10535;50.664;4.564;2023-02-28T04:25:39;3.83;;;2.57;;
20749;SDS011;10535;50.664;4.564;2023-02-28T04:28:05;5.10;;;4.27;;
20749;SDS011;10535;50.664;4.564;2023-02-28T04:30:31;6.57;;;3.90;;
20749;SDS011;10535;50.664;4.564;2023-02-28T04:32:58;4.33;;;2.90;;
20749;SDS011;10535;50.664;4.564;2023-02-28T04:35:25;4.57;;;3.30;;
20749;SDS011;10535;50.664;4.564;2023-02-28T04:37:50;4.17;;;3.40;;
20749;SDS011;10535;50.664;4.564;2023-02-28T04:40:16;6.50;;;3.50;;
20749;SDS011;10535;50.664;4.564;2023-02-28T04:42:41;3.17;;;2.83;;
20749;SDS011;10535;50.664;4.564;2023-02-28T04:45:07;9.07;;;3.23;;
20749;SDS011;10535;50.664;4.564;2023-02-28T04:47:35;4.47;;;3.43;;
20749;SDS011;10535;50.664;4.564;2023-02-28T04:50:01;5.83;;;4.53;;
20749;SDS011;10535;50.664;4.564;2023-02-28T04:52:27;6.47;;;3.37;;
20749;SDS011;10535;50.664;4.564;2023-02-28T04:54:52;4.70;;;3.70;;
20749;SDS011;10535;50.664;4.564;2023-02-28T04:57:18;8.27;;;4.17;;
20749;SDS011;10535;50.664;4.564;2023-02-28T04:59:43;5.37;;;3.83;;
20749;SDS011;10535;50.664;4.564;2023-02-28T05:02:09;5.60;;;4.27;;
20749;SDS011;10535;50.664;4.564;2023-02-28T05:04:35;13.47;;;4.37;;
20749;SDS011;10535;50.664;4.564;2023-02-28T05:07:01;6.53;;;4.07;;
20749;SDS011;10535;50.664;4.564;2023-02-28T05:09:28;8.13;;;3.90;;
20749;SDS011;10535;50.664;4.564;2023-02-28T05:11:53;5.77;;;3.87;;
20749;SDS011;10535;50.664;4.564;2023-02-28T05:14:19;7.00;;;4.97;;
20749;SDS011;10535;50.664;4.564;2023-02-28T05:16:45;8.57;;;4.30;;
20749;SDS011;10535;50.664;4.564;2023-02-28T05:19:11;5.30;;;3.37;;
20749;SDS011;10535;50.664;4.564;2023-02-28T05:21:38;6.07;;;4.00;;
20749;SDS011;10535;50.664;4.564;2023-02-28T05:24:06;7.60;;;4.50;;
20749;SDS011;10535;50.664;4.564;2023-02-28T05:26:35;10.43;;;4.10;;
20749;SDS011;10535;50.664;4.564;2023-02-28T05:29:04;6.83;;;4.13;;
20749;SDS011;10535;50.664;4.564;2023-02-28T05:31:30;5.90;;;4.13;;
20749;SDS011;10535;50.664;4.564;2023-02-28T05:33:55;9.00;;;3.80;;
20749;SDS011;10535;50.664;4.564;2023-02-28T05:36:21;9.87;;;4.50;;
20749;SDS011;10535;50.664;4.564;2023-02-28T05:38:47;3.27;;;2.77;;
20749;SDS011;10535;50.664;4.564;2023-02-28T05:41:14;13.53;;;5.37;;
20749;SDS011;10535;50.664;4.564;2023-02-28T05:43:40;6.03;;;3.57;;
20749;SDS011;10535;50.664;4.564;2023-02-28T05:46:06;11.00;;;5.07;;
20749;SDS011;10535;50.664;4.564;2023-02-28T05:48:34;12.23;;;5.57;;
20749;SDS011;10535;50.664;4.564;2023-02-28T05:51:01;6.83;;;4.00;;
20749;SDS011;10535;50.664;4.564;2023-02-28T05:53:27;5.70;;;3.93;;
20749;SDS011;10535;50.664;4.564;2023-02-28T05:55:53;5.73;;;3.83;;
20749;SDS011;10535;50.664;4.564;2023-02-28T05:58:19;8.27;;;5.03;;
20749;SDS011;10535;50.664;4.564;2023-02-28T06:00:45;4.30;;;3.90;;
20749;SDS011;10535;50.664;4.564;2023-02-28T06:03:11;6.10;;;4.07;;
20749;SDS011;10535;50.664;4.564;2023-02-28T06:05:36;6.83;;;4.53;;
20749;SDS011;10535;50.664;4.564;2023-02-28T06:08:03;7.90;;;5.00;;
20749;SDS011;10535;50.664;4.564;2023-02-28T06:10:31;6.00;;;4.13;;
20749;SDS011;10535;50.664;4.564;2023-02-28T06:13:01;8.33;;;4.70;;
20749;SDS011;10535;50.664;4.564;2023-02-28T06:15:28;8.40;;;4.77;;
20749;SDS011;10535;50.664;4.564;2023-02-28T06:17:54;12.43;;;4.70;;
20749;SDS011;10535;50.664;4.564;2023-02-28T06:20:24;5.50;;;4.33;;
20749;SDS011;10535;50.664;4.564;2023-02-28T06:22:51;11.07;;;6.00;;
20749;SDS011;10535;50.664;4.564;2023-02-28T06:25:17;6.13;;;4.63;;
20749;SDS011;10535;50.664;4.564;2023-02-28T06:27:43;8.87;;;5.20;;
20749;SDS011;10535;50.664;4.564;2023-02-28T06:30:09;8.40;;;4.80;;
20749;SDS011;10535;50.664;4.564;2023-02-28T06:32:35;10.77;;;4.87;;
20749;SDS011;10535;50.664;4.564;2023-02-28T06:35:01;11.87;;;4.70;;
20749;SDS011;10535;50.664;4.564;2023-02-28T06:37:27;9.37;;;5.03;;
20749;SDS011;10535;50.664;4.564;2023-02-28T06:39:53;6.70;;;5.03;;
20749;SDS011;10535;50.664;4.564;2023-02-28T06:42:21;8.20;;;5.67;;
20749;SDS011;10535;50.664;4.564;2023-02-28T06:44:49;9.90;;;5.50;;
20749;SDS011;10535;50.664;4.564;2023-02-28T06:47:15;5.27;;;4.23;;
20749;SDS011;10535;50.664;4.564;2023-02-28T06:49:41;8.33;;;4.97;;
20749;SDS011;10535;50.664;4.564;2023-02-28T06:52:07;8.33;;;4.60;;
20749;SDS011;10535;50.664;4.564;2023-02-28T06:54:35;7.03;;;4.93;;
20749;SDS011;10535;50.664;4.564;2023-02-28T06:57:02;9.17;;;5.63;;
20749;SDS011;10535;50.664;4.564;2023-02-28T06:59:28;9.13;;;5.53;;
20749;SDS011;10535;50.664;4.564;2023-02-28T07:01:53;11.03;;;5.67;;
20749;SDS011;10535;50.664;4.564;2023-02-28T07:04:20;9.80;;;6.77;;
20749;SDS011;10535;50.664;4.564;2023-02-28T07:06:46;8.93;;;5.47;;
20749;SDS011;10535;50.664;4.564;2023-02-28T07:09:11;8.33;;;5.97;;
20749;SDS011;10535;50.664;4.564;2023-02-28T07:11:38;7.40;;;5.13;;
20749;SDS011;10535;50.664;4.564;2023-02-28T07:14:05;11.27;;;6.33;;
20749;SDS011;10535;50.664;4.564;2023-02-28T07:16:31;10.93;;;6.43;;
20749;SDS011;10535;50.664;4.564;2023-02-28T07:18:57;12.67;;;7.47;;
20749;SDS011;10535;50.664;4.564;2023-02-28T07:21:23;12.33;;;6.23;;
20749;SDS011;10535;50.664;4.564;2023-02-28T07:23:49;7.37;;;5.30;;
20749;SDS011;10535;50.664;4.564;2023-02-28T07:26:17;8.17;;;5.70;;
20749;SDS011;10535;50.664;4.564;2023-02-28T07:28:44;8.53;;;5.73;;
20749;SDS011;10535;50.664;4.564;2023-02-28T07:31:12;13.67;;;7.57;;
20749;SDS011;10535;50.664;4.564;2023-02-28T07:33:39;13.50;;;6.83;;
20749;SDS011;10535;50.664;4.564;2023-02-28T07:36:06;11.50;;;6.97;;
20749;SDS011;10535;50.664;4.564;2023-02-28T07:38:34;8.60;;;5.73;;
20749;SDS011;10535;50.664;4.564;2023-02-28T07:41:01;8.30;;;5.63;;
20749;SDS011;10535;50.664;4.564;2023-02-28T07:43:29;8.37;;;6.03;;
20749;SDS011;10535;50.664;4.564;2023-02-28T07:45:55;15.53;;;6.60;;
20749;SDS011;10535;50.664;4.564;2023-02-28T07:48:26;7.93;;;5.43;;
20749;SDS011;10535;50.664;4.564;2023-02-28T07:50:55;8.50;;;5.33;;
20749;SDS011;10535;50.664;4.564;2023-02-28T07:53:21;6.50;;;5.03;;
20749;SDS011;10535;50.664;4.564;2023-02-28T07:55:47;8.30;;;5.33;;
20749;SDS011;10535;50.664;4.564;2023-02-28T07:58:13;9.83;;;5.33;;
20749;SDS011;10535;50.664;4.564;2023-02-28T08:00:38;8.53;;;5.10;;
20749;SDS011;10535;50.664;4.564;2023-02-28T08:03:04;8.23;;;5.60;;
20749;SDS011;10535;50.664;4.564;2023-02-28T08:05:30;14.93;;;4.97;;
20749;SDS011;10535;50.664;4.564;2023-02-28T08:07:56;5.43;;;3.77;;
20749;SDS011;10535;50.664;4.564;2023-02-28T08:10:21;8.30;;;5.60;;
20749;SDS011;10535;50.664;4.564;2023-02-28T08:12:47;5.83;;;5.07;;
20749;SDS011;10535;50.664;4.564;2023-02-28T08:15:13;6.13;;;4.50;;
20749;SDS011;10535;50.664;4.564;2023-02-28T08:17:38;5.17;;;4.27;;
20749;SDS011;10535;50.664;4.564;2023-02-28T08:20:04;8.90;;;4.20;;
20749;SDS011;10535;50.664;4.564;2023-02-28T08:22:30;13.10;;;5.63;;
20749;SDS011;10535;50.664;4.564;2023-02-28T08:24:56;5.50;;;3.47;;
20749;SDS011;10535;50.664;4.564;2023-02-28T08:27:21;7.97;;;5.30;;
20749;SDS011;10535;50.664;4.564;2023-02-28T08:29:47;6.37;;;5.03;;
20749;SDS011;10535;50.664;4.564;2023-02-28T08:32:13;5.07;;;3.50;;
20749;SDS011;10535;50.664;4.564;2023-02-28T08:34:39;6.17;;;2.73;;
20749;SDS011;10535;50.664;4.564;2023-02-28T08:37:05;4.57;;;3.60;;
20749;SDS011;10535;50.664;4.564;2023-02-28T08:39:33;8.00;;;5.00;;
20749;SDS011;10535;50.664;4.564;2023-02-28T08:41:59;4.90;;;3.57;;
20749;SDS011;10535;50.664;4.564;2023-02-28T08:44:25;8.77;;;3.53;;
20749;SDS011;10535;50.664;4.564;2023-02-28T08:46:52;6.63;;;4.07;;
20749;SDS011;10535;50.664;4.564;2023-02-28T08:49:17;6.40;;;3.80;;
20749;SDS011;10535;50.664;4.564;2023-02-28T08:51:43;2.90;;;2.57;;
20749;SDS011;10535;50.664;4.564;2023-02-28T08:54:09;4.97;;;3.93;;
20749;SDS011;10535;50.664;4.564;2023-02-28T08:56:41;5.87;;;3.40;;
20749;SDS011;10535;50.664;4.564;2023-02-28T08:59:08;5.90;;;2.60;;
20749;SDS011;10535;50.664;4.564;2023-02-28T09:01:34;5.43;;;3.37;;
20749;SDS011;10535;50.664;4.564;2023-02-28T09:04:01;2.83;;;2.50;;
20749;SDS011;10535;50.664;4.564;2023-02-28T09:06:28;3.17;;;2.87;;
20749;SDS011;10535;50.664;4.564;2023-02-28T09:09:19;4.77;;;3.40;;
20749;SDS011;10535;50.664;4.564;2023-02-28T09:11:48;5.87;;;4.30;;
20749;SDS011;10535;50.664;4.564;2023-02-28T09:14:13;4.60;;;3.37;;
20749;SDS011;10535;50.664;4.564;2023-02-28T09:16:39;4.00;;;2.40;;
20749;SDS011;10535;50.664;4.564;2023-02-28T09:19:04;3.63;;;3.33;;
20749;SDS011;10535;50.664;4.564;2023-02-28T09:21:30;3.23;;;2.60;;
20749;SDS011;10535;50.664;4.564;2023-02-28T09:23:56;7.43;;;3.03;;
20749;SDS011;10535;50.664;4.564;2023-02-28T09:26:24;3.13;;;2.83;;
20749;SDS011;10535;50.664;4.564;2023-02-28T09:28:54;5.60;;;3.57;;
20749;SDS011;10535;50.664;4.564;2023-02-28T09:31:25;2.60;;;2.27;;
20749;SDS011;10535;50.664;4.564;2023-02-28T09:33:53;5.07;;;3.00;;
20749;SDS011;10535;50.664;4.564;2023-02-28T09:36:21;2.60;;;2.40;;
20749;SDS011;10535;50.664;4.564;2023-02-28T09:38:47;5.23;;;2.67;;
20749;SDS011;10535;50.664;4.564;2023-02-28T09:41:17;3.57;;;2.23;;
20749;SDS011;10535;50.664;4.564;2023-02-28T09:43:55;3.33;;;2.13;;
20749;SDS011;10535;50.664;4.564;2023-02-28T09:49:19;3.37;;;2.80;;
20749;SDS011;10535;50.664;4.564;2023-02-28T09:52:17;3.67;;;2.37;;
20749;SDS011;10535;50.664;4.564;2023-02-28T09:54:52;3.10;;;2.60;;
20749;SDS011;10535;50.664;4.564;2023-02-28T09:57:36;2.17;;;1.97;;
20749;SDS011;10535;50.664;4.564;2023-02-28T10:00:34;3.23;;;2.60;;
20749;SDS011;10535;50.664;4.564;2023-02-28T10:03:15;3.47;;;2.80;;
20749;SDS011;10535;50.664;4.564;2023-02-28T10:09:00;3.67;;;2.50;;
20749;SDS011;10535;50.664;4.564;2023-02-28T10:11:47;2.43;;;2.03;;
20749;SDS011;10535;50.664;4.564;2023-02-28T10:14:36;4.07;;;2.37;;
20749;SDS011;10535;50.664;4.564;2023-02-28T10:17:44;4.20;;;2.50;;
20749;SDS011;10535;50.664;4.564;2023-02-28T10:20:32;5.13;;;2.77;;
20749;SDS011;10535;50.664;4.564;2023-02-28T10:23:10;3.17;;;2.33;;
20749;SDS011;10535;50.664;4.564;2023-02-28T10:26:11;3.33;;;2.00;;
20749;SDS011;10535;50.664;4.564;2023-02-28T10:28:50;2.20;;;2.00;;
20749;SDS011;10535;50.664;4.564;2023-02-28T10:31:20;2.17;;;1.97;;
20749;SDS011;10535;50.664;4.564;2023-02-28T10:33:48;7.93;;;2.07;;
20749;SDS011;10535;50.664;4.564;2023-02-28T10:36:23;2.97;;;1.80;;
20749;SDS011;10535;50.664;4.564;2023-02-28T10:38:49;2.03;;;1.83;;
20749;SDS011;10535;50.664;4.564;2023-02-28T10:41:26;2.53;;;2.30;;
20749;SDS011;10535;50.664;4.564;2023-02-28T10:44:46;2.73;;;2.30;;
20749;SDS011;10535;50.664;4.564;2023-02-28T10:47:40;3.20;;;1.57;;
20749;SDS011;10535;50.664;4.564;2023-02-28T10:59:22;1.87;;;1.77;;
20749;SDS011;10535;50.664;4.564;2023-02-28T11:05:25;2.20;;;1.97;;
20749;SDS011;10535;50.664;4.564;2023-02-28T11:08:16;8.23;;;2.17;;
20749;SDS011;10535;50.664;4.564;2023-02-28T11:10:46;2.83;;;1.80;;
20749;SDS011;10535;50.664;4.564;2023-02-28T11:13:16;3.40;;;2.20;;
20749;SDS011;10535;50.664;4.564;2023-02-28T11:15:55;2.40;;;1.83;;
20749;SDS011;10535;50.664;4.564;2023-02-28T11:18:27;2.03;;;1.80;;
20749;SDS011;10535;50.664;4.564;2023-02-28T11:21:04;2.17;;;1.97;;
20749;SDS011;10535;50.664;4.564;2023-02-28T11:23:30;3.13;;;2.33;;
20749;SDS011;10535;50.664;4.564;2023-02-28T11:26:02;3.27;;;1.40;;
20749;SDS011;10535;50.664;4.564;2023-02-28T11:28:36;4.23;;;2.27;;
20749;SDS011;10535;50.664;4.564;2023-02-28T11:33:41;2.17;;;1.67;;
20749;SDS011;10535;50.664;4.564;2023-02-28T11:36:20;1.90;;;1.50;;
20749;SDS011;10535;50.664;4.564;2023-02-28T11:38:50;1.90;;;1.40;;
20749;SDS011;10535;50.664;4.564;2023-02-28T11:48:04;2.70;;;2.17;;
20749;SDS011;10535;50.664;4.564;2023-02-28T11:51:34;4.60;;;2.33;;
20749;SDS011;10535;50.664;4.564;2023-02-28T11:56:54;1.33;;;1.27;;
20749;SDS011;10535;50.664;4.564;2023-02-28T12:07:47;1.70;;;1.60;;
20749;SDS011;10535;50.664;4.564;2023-02-28T12:10:25;2.00;;;1.90;;
